createdAt,value
2019-02-25T00:01:15.408Z,30.67
2019-02-25T00:03:49.227Z,30.99
2019-02-25T00:06:24.013Z,29.95
2019-02-25T00:08:58.573Z,30.80
2019-02-25T00:11:32.674Z,30.46
2019-02-25T00:14:06.635Z,31.02
2019-02-25T00:16:59.916Z,29.78
2019-02-25T00:19:33.739Z,29.21
2019-02-25T00:22:07.679Z,28.56
2019-02-25T00:24:41.408Z,29.35
2019-02-25T00:27:16.521Z,30.29
2019-02-25T00:29:50.169Z,30.76
2019-02-25T00:32:23.879Z,30.30
2019-02-25T00:34:57.865Z,29.98
2019-02-25T00:37:31.464Z,30.16
2019-02-25T00:40:05.809Z,29.91
2019-02-25T00:42:39.641Z,29.87
2019-02-25T00:45:15.607Z,30.48
2019-02-25T00:47:49.831Z,30.33
2019-02-25T00:50:24.607Z,28.87
2019-02-25T00:52:58.454Z,28.89
2019-02-25T00:55:33.313Z,28.96
2019-02-25T00:58:07.209Z,29.24
2019-02-25T01:00:41.436Z,30.09
2019-02-25T01:03:17.489Z,29.97
2019-02-25T01:05:52.226Z,30.03
2019-02-25T01:08:26.135Z,29.87
2019-02-25T01:11:00.010Z,29.48
2019-02-25T01:13:34.769Z,29.60
2019-02-25T01:16:08.940Z,29.17
2019-02-25T01:18:42.749Z,28.91
2019-02-25T01:21:17.099Z,28.54
2019-02-25T01:23:51.120Z,28.64
2019-02-25T01:26:24.932Z,28.37
2019-02-25T01:28:59.156Z,28.06
2019-02-25T01:31:33.687Z,28.30
2019-02-25T01:34:07.544Z,27.95
2019-02-25T01:36:42.468Z,27.44
2019-02-25T01:39:16.259Z,28.12
2019-02-25T01:41:50.200Z,27.97
2019-02-25T01:44:24.246Z,27.39
2019-02-25T01:47:00.059Z,27.35
2019-02-25T01:49:34.402Z,26.63
2019-02-25T01:52:08.322Z,27.20
2019-02-25T01:54:42.384Z,27.18
2019-02-25T01:57:16.641Z,26.97
2019-02-25T01:59:50.537Z,27.49
2019-02-25T02:02:24.584Z,27.40
2019-02-25T02:04:58.173Z,26.97
2019-02-25T02:07:32.048Z,26.80
2019-02-25T02:10:06.311Z,26.43
2019-02-25T02:12:39.988Z,26.53
2019-02-25T02:15:18.950Z,27.33
2019-02-25T02:17:52.926Z,27.11
2019-02-25T02:20:26.624Z,26.93
2019-02-25T02:23:00.500Z,26.40
2019-02-25T02:28:11.669Z,25.48
2019-02-25T02:30:45.306Z,24.82
2019-02-25T02:33:20.239Z,24.78
2019-02-25T02:35:53.854Z,24.81
2019-02-25T02:38:29.206Z,24.89
2019-02-25T02:41:03.649Z,25.30
2019-02-25T02:43:37.340Z,24.85
2019-02-25T02:46:24.494Z,24.77
2019-02-25T02:49:04.845Z,24.40
2019-02-25T02:51:38.215Z,24.81
2019-02-25T02:54:11.948Z,24.76
2019-02-25T02:56:46.960Z,24.57
2019-02-25T02:59:20.547Z,24.83
2019-02-25T03:01:54.642Z,24.92
2019-02-25T03:04:28.395Z,24.92
2019-02-25T03:07:03.439Z,24.27
2019-02-25T03:09:36.635Z,24.41
2019-02-25T03:12:10.344Z,24.15
2019-02-25T03:14:44.058Z,24.11
2019-02-25T03:17:17.701Z,24.30
2019-02-25T03:19:51.325Z,24.28
2019-02-25T03:22:25.020Z,23.80
2019-02-25T03:24:59.067Z,23.87
2019-02-25T03:27:33.269Z,23.13
2019-02-25T03:30:14.580Z,23.36
2019-02-25T03:32:48.395Z,23.43
2019-02-25T03:35:22.023Z,23.47
2019-02-25T03:37:55.591Z,23.48
2019-02-25T03:40:30.297Z,22.84
2019-02-25T03:43:04.185Z,22.34
2019-02-25T03:45:38.073Z,21.87
2019-02-25T03:48:11.726Z,22.33
2019-02-25T03:50:45.383Z,21.57
2019-02-25T03:53:20.428Z,21.58
2019-02-25T03:55:55.502Z,21.50
2019-02-25T03:58:29.213Z,21.90
2019-02-25T04:01:02.887Z,21.68
2019-02-25T04:03:36.754Z,21.69
2019-02-25T04:06:10.638Z,22.29
2019-02-25T04:08:44.583Z,21.39
2019-02-25T04:11:18.389Z,22.02
2019-02-25T04:13:52.025Z,21.93
2019-02-25T04:16:27.247Z,21.64
2019-02-25T04:19:02.276Z,22.03
2019-02-25T04:21:36.122Z,21.88
2019-02-25T04:24:10.092Z,22.51
2019-02-25T04:26:43.765Z,22.04
2019-02-25T04:29:17.376Z,21.98
2019-02-25T04:31:51.766Z,21.81
2019-02-25T04:34:25.428Z,21.80
2019-02-25T04:37:00.528Z,21.67
2019-02-25T04:39:34.862Z,21.84
2019-02-25T04:42:08.473Z,22.22
2019-02-25T04:44:42.190Z,22.21
2019-02-25T04:47:16.515Z,22.37
2019-02-25T04:49:50.482Z,22.07
2019-02-25T04:52:24.230Z,21.55
2019-02-25T04:54:57.944Z,21.74
2019-02-25T04:57:31.514Z,21.57
2019-02-25T05:00:06.686Z,22.04
2019-02-25T05:02:40.413Z,21.85
2019-02-25T05:05:14.081Z,22.37
2019-02-25T05:07:48.124Z,21.04
2019-02-25T05:10:22.015Z,21.15
2019-02-25T05:12:55.738Z,21.31
2019-02-25T05:15:29.851Z,21.13
2019-02-25T05:18:03.910Z,21.66
2019-02-25T05:20:37.340Z,21.46
2019-02-25T05:23:11.161Z,21.23
2019-02-25T05:25:44.658Z,21.21
2019-02-25T05:28:20.085Z,20.96
2019-02-25T05:30:54.037Z,20.95
2019-02-25T05:33:27.677Z,21.32
2019-02-25T05:36:01.829Z,21.08
2019-02-25T05:38:35.516Z,20.94
2019-02-25T05:41:09.782Z,20.33
2019-02-25T05:43:43.507Z,20.29
2019-02-25T05:46:17.387Z,20.61
2019-02-25T05:48:51.250Z,20.73
2019-02-25T05:51:24.862Z,20.31
2019-02-25T05:53:59.030Z,20.43
2019-02-25T05:56:32.714Z,20.63
2019-02-25T05:59:06.405Z,20.75
2019-02-25T06:01:40.069Z,20.92
2019-02-25T06:04:13.862Z,20.62
2019-02-25T06:06:49.154Z,21.07
2019-02-25T06:09:23.288Z,20.70
2019-02-25T06:11:58.743Z,20.88
2019-02-25T06:14:32.490Z,20.83
2019-02-25T06:17:06.198Z,20.87
2019-02-25T06:19:39.806Z,21.14
2019-02-25T06:22:14.934Z,21.33
2019-02-25T06:24:48.877Z,21.17
2019-02-25T06:27:43.413Z,21.07
2019-02-25T06:30:24.688Z,20.86
2019-02-25T06:32:58.493Z,21.03
2019-02-25T06:35:32.563Z,20.69
2019-02-25T06:38:06.469Z,21.17
2019-02-25T06:40:40.336Z,20.86
2019-02-25T06:43:13.922Z,21.06
2019-02-25T06:45:47.303Z,21.29
2019-02-25T06:48:21.258Z,21.27
2019-02-25T06:50:54.961Z,21.20
2019-02-25T06:53:28.830Z,20.76
2019-02-25T06:56:02.343Z,20.67
2019-02-25T06:58:36.491Z,20.24
2019-02-25T07:01:11.286Z,20.55
2019-02-25T07:03:45.984Z,20.91
2019-02-25T07:06:21.028Z,20.54
2019-02-25T07:08:54.807Z,20.53
2019-02-25T07:11:28.728Z,20.90
2019-02-25T07:14:03.711Z,20.80
2019-02-25T07:16:38.175Z,20.96
2019-02-25T07:19:11.486Z,20.91
2019-02-25T07:21:45.353Z,20.92
2019-02-25T07:24:19.034Z,21.02
2019-02-25T07:26:52.683Z,21.15
2019-02-25T07:29:25.978Z,20.89
2019-02-25T07:32:01.529Z,20.87
2019-02-25T07:34:35.397Z,20.93
2019-02-25T07:37:09.779Z,20.94
2019-02-25T07:39:43.341Z,20.76
2019-02-25T07:42:16.948Z,20.53
2019-02-25T07:44:50.549Z,20.65
2019-02-25T07:47:25.668Z,20.68
2019-02-25T07:49:59.565Z,20.80
2019-02-25T07:52:33.349Z,20.84
2019-02-25T07:55:08.803Z,20.90
2019-02-25T07:57:42.437Z,20.40
2019-02-25T08:00:17.935Z,20.30
2019-02-25T08:02:51.502Z,20.33
2019-02-25T08:05:25.904Z,20.20
2019-02-25T08:07:59.426Z,20.29
2019-02-25T08:10:33.402Z,20.48
2019-02-25T08:13:07.733Z,20.37
2019-02-25T08:15:41.293Z,20.35
2019-02-25T08:18:15.124Z,20.13
2019-02-25T08:21:10.242Z,20.54
2019-02-25T08:23:43.908Z,20.43
2019-02-25T08:26:17.749Z,20.47
2019-02-25T08:28:51.636Z,20.41
2019-02-25T08:31:25.587Z,20.94
2019-02-25T08:33:59.484Z,20.82
2019-02-25T08:37:04.758Z,20.87
2019-02-25T08:39:38.004Z,21.21
2019-02-25T08:42:12.590Z,21.33
2019-02-25T08:44:46.646Z,21.41
2019-02-25T08:47:20.398Z,21.36
2019-02-25T08:49:54.322Z,21.63
2019-02-25T08:52:27.913Z,22.02
2019-02-25T08:55:23.431Z,22.08
2019-02-25T08:57:57.539Z,22.79
2019-02-25T09:00:31.614Z,22.47
2019-02-25T09:03:05.681Z,22.84
2019-02-25T09:05:39.669Z,23.07
2019-02-25T09:08:13.935Z,22.95
2019-02-25T09:10:48.823Z,23.02
2019-02-25T09:13:23.862Z,23.12
2019-02-25T09:15:58.415Z,23.54
2019-02-25T09:18:32.536Z,23.19
2019-02-25T09:21:08.045Z,23.71
2019-02-25T09:23:41.462Z,23.56
2019-02-25T09:26:15.275Z,23.78
2019-02-25T09:28:49.097Z,23.94
2019-02-25T09:31:23.406Z,24.06
2019-02-25T09:33:57.071Z,24.65
2019-02-25T09:36:31.085Z,24.89
2019-02-25T09:39:05.190Z,24.98
2019-02-25T09:41:39.205Z,25.01
2019-02-25T09:44:14.458Z,24.90
2019-02-25T09:46:48.291Z,25.94
2019-02-25T09:49:22.434Z,25.66
2019-02-25T09:52:02.838Z,25.84
2019-02-25T09:54:37.516Z,25.69
2019-02-25T09:57:12.192Z,26.59
2019-02-25T10:00:23.790Z,26.87
2019-02-25T10:02:57.879Z,26.40
2019-02-25T10:05:32.155Z,26.74
2019-02-25T10:08:06.363Z,26.85
2019-02-25T10:10:41.993Z,27.06
2019-02-25T10:13:16.671Z,26.98
2019-02-25T10:15:50.936Z,27.72
2019-02-25T10:18:29.058Z,28.41
2019-02-25T10:21:09.429Z,28.47
2019-02-25T10:23:46.073Z,28.29
2019-02-25T10:26:25.530Z,28.58
2019-02-25T10:29:01.350Z,28.30
2019-02-25T10:31:38.124Z,28.82
2019-02-25T10:34:17.960Z,28.38
2019-02-25T10:36:53.011Z,29.28
2019-02-25T10:39:28.049Z,29.40
2019-02-25T10:42:22.987Z,30.30
2019-02-25T10:44:58.790Z,30.58
2019-02-25T10:47:36.419Z,30.06
2019-02-25T10:50:13.806Z,30.77
2019-02-25T10:53:03.479Z,30.51
2019-02-25T10:55:48.817Z,30.62
2019-02-25T10:58:24.737Z,30.16
2019-02-25T11:01:02.313Z,30.77
2019-02-25T11:03:36.863Z,31.50
2019-02-25T11:06:26.862Z,32.02
2019-02-25T11:08:59.023Z,31.49
2019-02-25T11:11:34.454Z,31.68
2019-02-25T11:14:11.020Z,31.73
2019-02-25T11:16:48.056Z,32.14
2019-02-25T11:19:28.641Z,32.16
2019-02-25T11:22:00.657Z,32.96
2019-02-25T11:24:35.853Z,33.20
2019-02-25T11:27:14.206Z,32.84
2019-02-25T11:29:48.801Z,32.08
2019-02-25T11:32:23.694Z,32.47
2019-02-25T11:35:01.474Z,32.75
2019-02-25T11:37:39.500Z,32.92
2019-02-25T11:40:28.945Z,32.92
2019-02-25T11:43:13.060Z,32.94
2019-02-25T11:45:47.385Z,33.25
2019-02-25T11:48:24.511Z,32.91
2019-02-25T11:51:01.066Z,32.76
2019-02-25T11:53:40.001Z,32.75
2019-02-25T11:56:15.571Z,32.98
2019-02-25T11:58:52.264Z,34.08
2019-02-25T12:01:26.631Z,34.20
2019-02-25T12:04:02.267Z,34.47
2019-02-25T12:06:42.992Z,34.58
2019-02-25T12:09:20.753Z,34.66
2019-02-25T12:11:58.475Z,34.33
2019-02-25T12:14:35.819Z,34.25
2019-02-25T12:17:11.072Z,35.14
2019-02-25T12:19:46.030Z,33.97
2019-02-25T12:22:22.327Z,34.57
2019-02-25T12:24:56.987Z,33.94
2019-02-25T12:27:31.839Z,33.79
2019-02-25T12:30:07.493Z,34.30
2019-02-25T12:32:44.352Z,34.62
2019-02-25T12:35:26.610Z,35.16
2019-02-25T12:38:03.095Z,35.50
2019-02-25T12:40:38.367Z,35.39
2019-02-25T12:43:13.381Z,35.53
2019-02-25T12:45:48.782Z,35.46
2019-02-25T12:48:23.381Z,35.78
2019-02-25T12:50:59.473Z,36.63
2019-02-25T12:53:34.374Z,36.78
2019-02-25T12:56:14.656Z,36.54
2019-02-25T12:58:49.420Z,36.74
2019-02-25T13:01:24.830Z,36.51
2019-02-25T13:04:02.235Z,36.03
2019-02-25T13:06:38.823Z,35.82
2019-02-25T13:09:15.814Z,35.76
2019-02-25T13:11:51.184Z,35.64
2019-02-25T13:14:25.497Z,35.15
2019-02-25T13:17:04.156Z,35.52
2019-02-25T13:19:41.754Z,34.70
2019-02-25T13:22:19.480Z,34.11
2019-02-25T13:24:55.056Z,34.43
2019-02-25T13:27:32.157Z,34.22
2019-02-25T13:30:08.710Z,34.14
2019-02-25T13:32:46.402Z,33.83
2019-02-25T13:35:20.956Z,33.74
2019-02-25T13:37:56.096Z,34.00
2019-02-25T13:40:30.504Z,33.65
2019-02-25T13:43:05.332Z,33.48
2019-02-25T13:45:39.763Z,33.40
2019-02-25T13:48:14.138Z,32.99
2019-02-25T13:50:48.001Z,33.50
2019-02-25T13:53:22.606Z,33.29
2019-02-25T13:55:58.601Z,32.71
2019-02-25T13:58:32.506Z,33.34
2019-02-25T14:01:06.622Z,33.58
2019-02-25T14:03:40.678Z,33.80
2019-02-25T14:06:17.743Z,34.12
2019-02-25T14:08:51.603Z,34.30
2019-02-25T14:11:25.504Z,34.40
2019-02-25T14:14:00.183Z,34.73
2019-02-25T14:16:36.322Z,35.05
2019-02-25T14:19:10.291Z,35.05
2019-02-25T14:21:44.373Z,34.49
2019-02-25T14:24:20.801Z,35.34
2019-02-25T14:26:55.072Z,34.93
2019-02-25T14:29:28.901Z,34.81
2019-02-25T14:32:03.542Z,34.67
2019-02-25T14:34:37.412Z,34.52
2019-02-25T14:37:10.759Z,34.48
2019-02-25T14:39:49.409Z,34.62
2019-02-25T14:42:44.497Z,35.10
2019-02-25T14:45:21.371Z,35.42
2019-02-25T14:47:57.510Z,34.59
2019-02-25T14:50:28.300Z,34.61
2019-02-25T14:53:03.919Z,34.84
2019-02-25T14:55:40.778Z,34.33
2019-02-25T14:58:15.053Z,34.80
2019-02-25T15:00:49.737Z,35.25
2019-02-25T15:03:26.944Z,34.49
2019-02-25T15:06:00.771Z,34.59
2019-02-25T15:08:34.687Z,34.43
2019-02-25T15:11:09.244Z,34.96
2019-02-25T15:13:44.930Z,35.03
2019-02-25T15:16:18.816Z,35.21
2019-02-25T15:18:52.800Z,34.86
2019-02-25T15:21:26.802Z,34.77
2019-02-25T15:24:04.126Z,34.81
2019-02-25T15:26:42.826Z,34.38
2019-02-25T15:29:13.979Z,34.20
2019-02-25T15:31:50.469Z,34.25
2019-02-25T15:34:24.091Z,34.56
2019-02-25T15:37:00.721Z,33.55
2019-02-25T15:39:34.459Z,34.20
2019-02-25T15:42:08.673Z,34.57
2019-02-25T15:44:44.531Z,34.43
2019-02-25T15:47:17.816Z,33.87
2019-02-25T15:49:55.361Z,33.13
2019-02-25T15:52:30.836Z,33.13
2019-02-25T15:55:03.977Z,34.13
2019-02-25T15:57:39.963Z,34.13
2019-02-25T16:00:23.269Z,34.42
2019-02-25T16:03:03.838Z,34.69
2019-02-25T16:05:38.761Z,34.31
2019-02-25T16:08:19.033Z,34.80
2019-02-25T16:10:55.645Z,33.11
2019-02-25T16:13:26.806Z,32.95
2019-02-25T16:16:01.113Z,32.86
2019-02-25T16:18:35.008Z,32.88
2019-02-25T16:21:11.231Z,32.35
2019-02-25T16:23:45.386Z,32.66
2019-02-25T16:26:20.089Z,32.41
2019-02-25T16:28:55.168Z,32.45
2019-02-25T16:31:30.909Z,32.43
2019-02-25T16:34:04.329Z,33.84
2019-02-25T16:36:37.917Z,32.86
2019-02-25T16:39:12.363Z,32.55
2019-02-25T16:41:47.447Z,32.72
2019-02-25T16:44:21.415Z,32.73
2019-02-25T16:47:15.997Z,33.00
2019-02-25T16:49:50.328Z,33.12
2019-02-25T16:52:24.517Z,33.10
2019-02-25T16:55:20.083Z,33.14
2019-02-25T16:57:53.827Z,33.18
2019-02-25T17:00:29.962Z,33.20
2019-02-25T17:03:05.997Z,33.07
2019-02-25T17:05:40.285Z,33.02
2019-02-25T17:08:34.446Z,33.30
2019-02-25T17:11:10.508Z,32.96
2019-02-25T17:13:43.717Z,33.38
2019-02-25T17:16:18.416Z,33.40
2019-02-25T17:18:51.888Z,33.37
2019-02-25T17:21:26.597Z,33.71
2019-02-25T17:24:01.175Z,33.66
2019-02-25T17:26:35.233Z,33.89
2019-02-25T17:29:09.079Z,34.20
2019-02-25T17:31:45.032Z,34.11
2019-02-25T17:34:19.171Z,34.21
2019-02-25T17:36:54.613Z,34.23
2019-02-25T17:39:29.463Z,34.55
2019-02-25T17:42:06.113Z,34.63
2019-02-25T17:44:39.706Z,35.01
2019-02-25T17:47:24.092Z,35.19
2019-02-25T17:49:51.223Z,35.50
2019-02-25T17:52:25.025Z,36.00
2019-02-25T17:55:01.502Z,35.25
2019-02-25T17:57:55.982Z,35.95
2019-02-25T18:00:34.344Z,35.37
2019-02-25T18:03:08.230Z,36.01
2019-02-25T18:05:43.214Z,35.56
2019-02-25T18:08:17.549Z,35.68
2019-02-25T18:10:52.218Z,35.53
2019-02-25T18:13:28.127Z,35.58
2019-02-25T18:16:05.296Z,35.59
2019-02-25T18:18:41.205Z,36.07
2019-02-25T18:21:14.076Z,36.09
2019-02-25T18:23:49.415Z,36.36
2019-02-25T18:26:23.287Z,36.71
2019-02-25T18:28:57.982Z,36.68
2019-02-25T18:31:32.564Z,36.57
2019-02-25T18:34:06.970Z,36.49
2019-02-25T18:36:41.843Z,36.74
2019-02-25T18:39:16.747Z,37.36
2019-02-25T18:41:52.591Z,37.59
2019-02-25T18:44:27.826Z,37.95
2019-02-25T18:47:02.563Z,38.54
2019-02-25T18:49:37.118Z,39.23
2019-02-25T18:52:10.979Z,39.69
2019-02-25T18:54:47.409Z,39.94
2019-02-25T18:57:41.711Z,40.00
2019-02-25T19:00:33.461Z,40.25
2019-02-25T19:03:07.759Z,40.64
2019-02-25T19:05:45.319Z,41.18
2019-02-25T19:08:24.109Z,40.82
2019-02-25T19:10:57.844Z,41.31
2019-02-25T19:13:32.075Z,41.39
2019-02-25T19:16:06.193Z,41.43
2019-02-25T19:18:41.392Z,41.54
2019-02-25T19:21:16.449Z,41.30
2019-02-25T19:23:51.838Z,41.40
2019-02-25T19:26:25.959Z,42.28
2019-02-25T19:29:01.630Z,41.82
2019-02-25T19:31:35.771Z,41.83
2019-02-25T19:34:10.531Z,42.09
2019-02-25T19:36:44.410Z,41.85
2019-02-25T19:39:19.781Z,42.14
2019-02-25T19:41:53.820Z,42.19
2019-02-25T19:44:29.797Z,42.62
2019-02-25T19:47:23.780Z,42.59
2019-02-25T19:49:59.134Z,43.00
2019-02-25T19:52:34.712Z,43.14
2019-02-25T19:55:13.051Z,43.27
2019-02-25T19:57:47.278Z,43.38
2019-02-25T20:00:27.514Z,43.54
2019-02-25T20:03:05.905Z,43.62
2019-02-25T20:05:41.183Z,43.66
2019-02-25T20:08:12.414Z,43.75
2019-02-25T20:10:46.024Z,43.80
2019-02-25T20:13:22.018Z,43.95
2019-02-25T20:15:55.713Z,44.54
2019-02-25T20:18:30.741Z,44.76
2019-02-25T20:21:05.758Z,44.98
2019-02-25T20:23:39.276Z,44.96
2019-02-25T20:26:13.459Z,45.48
2019-02-25T20:28:48.742Z,45.48
2019-02-25T20:31:22.930Z,45.37
2019-02-25T20:33:57.374Z,45.66
2019-02-25T20:36:32.693Z,45.77
2019-02-25T20:39:07.034Z,45.68
2019-02-25T20:41:40.777Z,45.86
2019-02-25T20:44:15.920Z,46.11
2019-02-25T20:46:52.656Z,46.35
2019-02-25T20:49:26.385Z,46.32
2019-02-25T20:52:01.163Z,46.68
2019-02-25T20:54:37.981Z,47.26
2019-02-25T20:57:10.095Z,47.62
2019-02-25T20:59:44.220Z,47.27
2019-02-25T21:02:18.853Z,47.15
2019-02-25T21:04:52.821Z,47.17
2019-02-25T21:07:27.600Z,47.31
2019-02-25T21:10:03.387Z,47.36
2019-02-25T21:12:36.430Z,46.54
2019-02-25T21:15:20.862Z,46.65
2019-02-25T21:17:54.997Z,46.76
2019-02-25T21:20:31.251Z,46.55
2019-02-25T21:23:05.941Z,46.89
2019-02-25T21:25:38.627Z,46.85
2019-02-25T21:28:12.588Z,46.83
2019-02-25T21:30:48.004Z,47.20
2019-02-25T21:33:24.946Z,47.25
2019-02-25T21:35:57.618Z,47.53
2019-02-25T21:38:32.515Z,47.48
2019-02-25T21:41:07.442Z,47.29
2019-02-25T21:43:43.343Z,47.25
2019-02-25T21:46:17.825Z,47.83
2019-02-25T21:48:54.864Z,47.85
2019-02-25T21:51:30.333Z,48.47
2019-02-25T21:54:02.331Z,48.40
2019-02-25T21:56:36.701Z,48.21
2019-02-25T21:59:10.517Z,48.42
2019-02-25T22:02:04.103Z,48.42
2019-02-25T22:04:40.399Z,48.73
2019-02-25T22:07:16.914Z,48.97
2019-02-25T22:09:47.139Z,48.96
2019-02-25T22:12:20.777Z,48.91
2019-02-25T22:14:54.589Z,49.29
2019-02-25T22:17:28.183Z,49.72
2019-02-25T22:20:04.815Z,49.56
2019-02-25T22:22:37.725Z,49.88
2019-02-25T22:25:23.064Z,50.25
2019-02-25T22:27:58.907Z,50.11
2019-02-25T22:30:32.024Z,50.48
2019-02-25T22:33:07.876Z,50.47
2019-02-25T22:35:42.487Z,50.68
2019-02-25T22:38:17.853Z,50.86
2019-02-25T22:40:53.594Z,50.91
2019-02-25T22:43:27.234Z,51.15
2019-02-25T22:46:02.591Z,50.50
2019-02-25T22:48:37.464Z,51.15
2019-02-25T22:51:10.851Z,51.05
2019-02-25T22:53:44.552Z,51.22
2019-02-25T22:56:18.403Z,51.21
2019-02-25T22:58:53.969Z,50.95
2019-02-25T23:01:27.537Z,51.22
2019-02-25T23:04:01.616Z,51.38
2019-02-25T23:06:39.581Z,51.24
2019-02-25T23:09:14.112Z,51.43
2019-02-25T23:11:46.081Z,51.74
2019-02-25T23:14:20.519Z,51.64
2019-02-25T23:16:55.679Z,51.21
2019-02-25T23:19:29.766Z,51.56
2019-02-25T23:22:03.506Z,51.40
2019-02-25T23:24:39.820Z,52.07
2019-02-25T23:27:13.050Z,51.37
2019-02-25T23:29:48.315Z,50.73
2019-02-25T23:32:21.755Z,49.80
2019-02-25T23:34:57.044Z,49.36
2019-02-25T23:37:30.632Z,49.08
2019-02-25T23:40:09.699Z,49.48
2019-02-25T23:42:44.338Z,49.30
2019-02-25T23:45:20.453Z,49.57
2019-02-25T23:48:01.837Z,49.02
2019-02-25T23:50:36.172Z,48.88
2019-02-25T23:53:10.018Z,48.13
2019-02-25T23:55:47.140Z,47.58
2019-02-25T23:58:20.197Z,47.76
